Hustler, Wisconsin
Current Conditions -  °F | °C
As of 9:58 AM on Wednesday 22 Oct 2014 (Local Time) from KVOK Reporting Station
Clear Clear  
Wind Chill: 35°   Ceiling: Unl
Heat Index: 39°   Visibility: 10mi
Dew Point: 39°   Wind: 6mph
Humidity: 100%   Direction: 120°ESE
Pressure: 30.33"   Gusts: NA
Location:  43.88°N, 90.27°W
Report Text: KVOK 221458Z 12005KT 10SM CLR 04/04 A3033 RMK AO2A SLP284 50000
Loading
Personal Weather Stations






























Interactive Weather Map
Tropical Storm Tracking
New forecast layout! Learn more

10-Day Weather Forecast

Advertisements
Track Severe Weather on mobile